TNCM

Princess Juliana International Airport

Philipsburg, , Netherlands Antilles
TNCM 200540Z 2006/2106 08010KT P6SM SCT020
Issued Valid From Valid To
Jan-20 @ 05:40 UTC
(6 hours ago)
Jan-20 @ 06:00 UTC
(6 hours ago)
Jan-21 @ 06:00 UTC
(in 18 hours)
Jan-20 @ 06:00 to Jan-21 @ 06:00
TNCM 200540Z 2006/2106 08010KT P6SM SCT020
Wind Visibility Clouds
80° at 10 knots 10,000+ meters
  • Scattered at 2,000' AGL
TNCM 200540Z 2006/2106 08010KT P6SM SCT020
Issued Jan-20 @ 05:40 UTC
(6 hours ago)
Valid From Jan-20 @ 06:00 UTC
(6 hours ago)
Valid To Jan-21 @ 06:00 UTC
(in 18 hours)
Jan-20 @ 06:00 - Jan-21 @ 06:00
Wind Visibility
80° at 10 knots 10,000+ meters
Clouds
  • Scattered at 2,000' AGL